sensor_id;sensor_type;location;lat;lon;timestamp;pressure;altitude;pressure_sealevel;temperature;humidity
21433;BME280;18592;49.708;10.900;2022-07-23T00:01:31;98523.19;;;26.99;38.87
21433;BME280;18592;49.708;10.900;2022-07-23T00:03:33;98528.44;;;27.00;39.14
21433;BME280;18592;49.708;10.900;2022-07-23T00:05:35;98540.00;;;26.99;39.15
21433;BME280;18592;49.708;10.900;2022-07-23T00:07:38;98527.16;;;26.98;39.25
21433;BME280;18592;49.708;10.900;2022-07-23T00:09:40;98526.34;;;26.97;39.47
21433;BME280;18592;49.708;10.900;2022-07-23T00:11:42;98512.72;;;26.96;39.33
21433;BME280;18592;49.708;10.900;2022-07-23T00:13:43;98509.47;;;26.94;39.25
21433;BME280;18592;49.708;10.900;2022-07-23T00:15:45;98515.06;;;26.94;39.58
21433;BME280;18592;49.708;10.900;2022-07-23T00:17:47;98504.22;;;26.92;39.41
21433;BME280;18592;49.708;10.900;2022-07-23T00:19:49;98507.03;;;26.92;39.55
21433;BME280;18592;49.708;10.900;2022-07-23T00:21:51;98506.56;;;26.90;39.85
21433;BME280;18592;49.708;10.900;2022-07-23T00:23:52;98508.09;;;26.88;39.93
21433;BME280;18592;49.708;10.900;2022-07-23T00:25:54;98502.88;;;26.86;39.85
21433;BME280;18592;49.708;10.900;2022-07-23T00:27:57;98502.41;;;26.84;39.92
21433;BME280;18592;49.708;10.900;2022-07-23T00:29:59;98495.19;;;26.83;39.96
21433;BME280;18592;49.708;10.900;2022-07-23T00:32:01;98494.75;;;26.81;39.71
21433;BME280;18592;49.708;10.900;2022-07-23T00:34:03;98489.88;;;26.78;40.16
21433;BME280;18592;49.708;10.900;2022-07-23T00:36:04;98493.81;;;26.77;40.14
21433;BME280;18592;49.708;10.900;2022-07-23T00:38:08;98490.56;;;26.75;40.02
21433;BME280;18592;49.708;10.900;2022-07-23T00:40:11;98489.66;;;26.71;39.90
21433;BME280;18592;49.708;10.900;2022-07-23T00:42:13;98488.00;;;26.70;40.38
21433;BME280;18592;49.708;10.900;2022-07-23T00:46:22;98478.72;;;26.66;39.99
21433;BME280;18592;49.708;10.900;2022-07-23T00:48:24;98473.84;;;26.63;40.01
21433;BME280;18592;49.708;10.900;2022-07-23T00:50:27;98472.22;;;26.62;40.33
21433;BME280;18592;49.708;10.900;2022-07-23T00:52:29;98469.78;;;26.61;40.02
21433;BME280;18592;49.708;10.900;2022-07-23T00:54:32;98462.91;;;26.58;40.43
21433;BME280;18592;49.708;10.900;2022-07-23T00:56:34;98460.47;;;26.57;40.58
21433;BME280;18592;49.708;10.900;2022-07-23T00:58:36;98456.06;;;26.56;40.27
21433;BME280;18592;49.708;10.900;2022-07-23T01:00:40;98459.19;;;26.54;40.90
21433;BME280;18592;49.708;10.900;2022-07-23T01:02:42;98455.63;;;26.54;40.53
21433;BME280;18592;49.708;10.900;2022-07-23T01:04:44;98441.16;;;26.52;40.88
21433;BME280;18592;49.708;10.900;2022-07-23T01:06:46;98432.31;;;26.49;40.93
21433;BME280;18592;49.708;10.900;2022-07-23T01:08:48;98439.44;;;26.47;40.86
21433;BME280;18592;49.708;10.900;2022-07-23T01:10:50;98430.59;;;26.45;41.07
21433;BME280;18592;49.708;10.900;2022-07-23T01:12:53;98433.28;;;26.41;40.77
21433;BME280;18592;49.708;10.900;2022-07-23T01:14:59;98430.41;;;26.38;40.99
21433;BME280;18592;49.708;10.900;2022-07-23T01:17:03;98430.31;;;26.34;41.42
21433;BME280;18592;49.708;10.900;2022-07-23T01:19:05;98440.22;;;26.32;41.14
21433;BME280;18592;49.708;10.900;2022-07-23T01:21:10;98435.81;;;26.31;41.38
21433;BME280;18592;49.708;10.900;2022-07-23T01:23:14;98445.38;;;26.30;41.83
21433;BME280;18592;49.708;10.900;2022-07-23T01:25:22;98448.88;;;26.27;41.92
21433;BME280;18592;49.708;10.900;2022-07-23T01:27:29;98439.22;;;26.24;41.43
21433;BME280;18592;49.708;10.900;2022-07-23T01:29:36;98441.94;;;26.21;41.45
21433;BME280;18592;49.708;10.900;2022-07-23T01:31:43;98444.72;;;26.21;41.65
21433;BME280;18592;49.708;10.900;2022-07-23T01:33:46;98444.25;;;26.19;41.46
21433;BME280;18592;49.708;10.900;2022-07-23T01:35:47;98441.00;;;26.17;42.00
21433;BME280;18592;49.708;10.900;2022-07-23T01:37:54;98445.31;;;26.14;41.88
21433;BME280;18592;49.708;10.900;2022-07-23T01:39:56;98434.50;;;26.13;41.76
21433;BME280;18592;49.708;10.900;2022-07-23T01:41:58;98432.88;;;26.12;41.43
21433;BME280;18592;49.708;10.900;2022-07-23T01:44:01;98435.19;;;26.10;41.91
21433;BME280;18592;49.708;10.900;2022-07-23T01:46:04;98432.75;;;26.08;42.32
21433;BME280;18592;49.708;10.900;2022-07-23T01:48:12;98439.88;;;26.06;42.37
21433;BME280;18592;49.708;10.900;2022-07-23T01:50:23;98447.75;;;26.04;42.26
21433;BME280;18592;49.708;10.900;2022-07-23T01:52:51;98455.69;;;26.02;42.37
21433;BME280;18592;49.708;10.900;2022-07-23T01:54:53;98451.28;;;26.01;42.43
21433;BME280;18592;49.708;10.900;2022-07-23T01:56:54;98452.44;;;26.00;42.37
21433;BME280;18592;49.708;10.900;2022-07-23T01:58:57;98444.78;;;25.97;42.52
21433;BME280;18592;49.708;10.900;2022-07-23T02:00:59;98456.75;;;25.97;42.28
21433;BME280;18592;49.708;10.900;2022-07-23T02:03:01;98479.47;;;25.96;42.12
21433;BME280;18592;49.708;10.900;2022-07-23T02:05:03;98486.22;;;25.95;42.64
21433;BME280;18592;49.708;10.900;2022-07-23T02:07:05;98487.38;;;25.94;42.54
21433;BME280;18592;49.708;10.900;2022-07-23T02:09:07;98489.72;;;25.92;42.78
21433;BME280;18592;49.708;10.900;2022-07-23T02:11:08;98488.81;;;25.88;42.87
21433;BME280;18592;49.708;10.900;2022-07-23T02:13:10;98489.16;;;25.86;42.83
21433;BME280;18592;49.708;10.900;2022-07-23T02:15:19;98479.50;;;25.83;43.18
21433;BME280;18592;49.708;10.900;2022-07-23T02:17:21;98473.44;;;25.81;43.17
21433;BME280;18592;49.708;10.900;2022-07-23T02:19:22;98467.03;;;25.81;42.76
21433;BME280;18592;49.708;10.900;2022-07-23T02:21:24;98475.78;;;25.79;43.10
21433;BME280;18592;49.708;10.900;2022-07-23T02:23:27;98469.75;;;25.77;42.65
21433;BME280;18592;49.708;10.900;2022-07-23T02:25:28;98470.09;;;25.76;42.80
21433;BME280;18592;49.708;10.900;2022-07-23T02:27:35;98467.19;;;25.72;43.02
21433;BME280;18592;49.708;10.900;2022-07-23T02:29:39;98457.19;;;25.71;42.80
21433;BME280;18592;49.708;10.900;2022-07-23T02:31:41;98447.97;;;25.71;42.47
21433;BME280;18592;49.708;10.900;2022-07-23T02:33:43;98450.69;;;25.67;42.92
21433;BME280;18592;49.708;10.900;2022-07-23T02:35:45;98445.09;;;25.67;42.67
21433;BME280;18592;49.708;10.900;2022-07-23T02:37:47;98438.69;;;25.67;42.44
21433;BME280;18592;49.708;10.900;2022-07-23T02:39:51;98432.28;;;25.66;42.85
21433;BME280;18592;49.708;10.900;2022-07-23T02:41:55;98428.59;;;25.62;43.00
21433;BME280;18592;49.708;10.900;2022-07-23T02:43:56;98427.41;;;25.63;42.72
21433;BME280;18592;49.708;10.900;2022-07-23T02:45:58;98418.59;;;25.61;42.87
21433;BME280;18592;49.708;10.900;2022-07-23T02:48:00;98418.59;;;25.61;42.83
21433;BME280;18592;49.708;10.900;2022-07-23T02:50:02;98414.16;;;25.60;43.15
21433;BME280;18592;49.708;10.900;2022-07-23T02:52:08;98408.09;;;25.58;42.64
21433;BME280;18592;49.708;10.900;2022-07-23T02:54:12;98406.50;;;25.57;42.81
21433;BME280;18592;49.708;10.900;2022-07-23T02:56:14;98408.47;;;25.57;42.89
21433;BME280;18592;49.708;10.900;2022-07-23T02:58:16;98403.22;;;25.55;42.93
21433;BME280;18592;49.708;10.900;2022-07-23T03:00:17;98404.41;;;25.54;42.92
21433;BME280;18592;49.708;10.900;2022-07-23T03:02:19;98407.09;;;25.51;43.32
21433;BME280;18592;49.708;10.900;2022-07-23T03:04:22;98412.22;;;25.49;43.01
21433;BME280;18592;49.708;10.900;2022-07-23T03:06:24;98414.56;;;25.47;42.89
21433;BME280;18592;49.708;10.900;2022-07-23T03:08:26;98416.53;;;25.46;42.81
21433;BME280;18592;49.708;10.900;2022-07-23T03:10:28;98424.06;;;25.46;42.96
21433;BME280;18592;49.708;10.900;2022-07-23T03:12:29;98420.47;;;25.45;42.85
21433;BME280;18592;49.708;10.900;2022-07-23T03:14:31;98416.38;;;25.43;43.05
21433;BME280;18592;49.708;10.900;2022-07-23T03:16:32;98422.31;;;25.41;43.24
21433;BME280;18592;49.708;10.900;2022-07-23T03:18:34;98423.00;;;25.38;43.34
21433;BME280;18592;49.708;10.900;2022-07-23T03:20:42;98424.53;;;25.36;43.29
21433;BME280;18592;49.708;10.900;2022-07-23T03:22:44;98428.50;;;25.35;43.02
21433;BME280;18592;49.708;10.900;2022-07-23T03:24:46;98437.56;;;25.32;43.04
21433;BME280;18592;49.708;10.900;2022-07-23T03:26:59;98435.59;;;25.32;43.44
21433;BME280;18592;49.708;10.900;2022-07-23T03:29:01;98430.34;;;25.31;43.07
21433;BME280;18592;49.708;10.900;2022-07-23T03:31:06;98425.13;;;25.29;43.46
21433;BME280;18592;49.708;10.900;2022-07-23T03:33:08;98412.69;;;25.27;43.55
21433;BME280;18592;49.708;10.900;2022-07-23T03:35:10;98416.63;;;25.25;43.42
21433;BME280;18592;49.708;10.900;2022-07-23T03:37:20;98417.00;;;25.24;43.60
21433;BME280;18592;49.708;10.900;2022-07-23T03:39:22;98423.72;;;25.23;43.60
21433;BME280;18592;49.708;10.900;2022-07-23T03:41:24;98431.63;;;25.21;43.35
21433;BME280;18592;49.708;10.900;2022-07-23T03:43:25;98432.78;;;25.20;43.64
21433;BME280;18592;49.708;10.900;2022-07-23T03:45:27;98433.16;;;25.18;43.82
21433;BME280;18592;49.708;10.900;2022-07-23T03:47:29;98436.31;;;25.17;43.53
21433;BME280;18592;49.708;10.900;2022-07-23T03:49:33;98441.88;;;25.17;43.69
21433;BME280;18592;49.708;10.900;2022-07-23T03:51:34;98440.25;;;25.16;43.85
21433;BME280;18592;49.708;10.900;2022-07-23T03:53:36;98452.91;;;25.13;43.86
21433;BME280;18592;49.708;10.900;2022-07-23T03:55:38;98436.53;;;25.12;43.64
21433;BME280;18592;49.708;10.900;2022-07-23T03:57:40;98436.06;;;25.10;43.72
21433;BME280;18592;49.708;10.900;2022-07-23T03:59:42;98445.94;;;25.07;44.16
21433;BME280;18592;49.708;10.900;2022-07-23T04:01:43;98441.88;;;25.05;43.99
21433;BME280;18592;49.708;10.900;2022-07-23T04:03:46;98446.16;;;25.02;44.05
21433;BME280;18592;49.708;10.900;2022-07-23T04:05:48;98450.13;;;25.01;44.22
21433;BME280;18592;49.708;10.900;2022-07-23T04:07:49;98450.47;;;25.00;44.38
21433;BME280;18592;49.708;10.900;2022-07-23T04:09:52;98446.06;;;24.99;44.53
21433;BME280;18592;49.708;10.900;2022-07-23T04:11:54;98454.44;;;24.99;44.48
21433;BME280;18592;49.708;10.900;2022-07-23T04:13:55;98446.75;;;24.96;44.68
21433;BME280;18592;49.708;10.900;2022-07-23T04:15:58;98460.25;;;24.94;44.35
21433;BME280;18592;49.708;10.900;2022-07-23T04:18:00;98462.22;;;24.93;44.44
21433;BME280;18592;49.708;10.900;2022-07-23T04:20:15;98454.53;;;24.90;44.67
21433;BME280;18592;49.708;10.900;2022-07-23T04:22:22;98468.84;;;24.89;45.15
21433;BME280;18592;49.708;10.900;2022-07-23T04:24:24;98468.38;;;24.87;44.64
21433;BME280;18592;49.708;10.900;2022-07-23T04:26:26;98469.06;;;24.84;44.37
21433;BME280;18592;49.708;10.900;2022-07-23T04:28:28;98465.00;;;24.81;43.95
21433;BME280;18592;49.708;10.900;2022-07-23T04:30:30;98472.19;;;24.82;44.31
21433;BME280;18592;49.708;10.900;2022-07-23T04:32:32;98471.03;;;24.83;44.25
21433;BME280;18592;49.708;10.900;2022-07-23T04:34:35;98472.53;;;24.81;44.23
21433;BME280;18592;49.708;10.900;2022-07-23T04:36:37;98470.56;;;24.81;43.84
21433;BME280;18592;49.708;10.900;2022-07-23T04:38:38;98463.03;;;24.82;44.33
21433;BME280;18592;49.708;10.900;2022-07-23T04:40:40;98474.28;;;24.85;44.04
21433;BME280;18592;49.708;10.900;2022-07-23T04:42:42;98467.56;;;24.86;44.04
21433;BME280;18592;49.708;10.900;2022-07-23T04:44:44;98466.88;;;24.89;43.95
21433;BME280;18592;49.708;10.900;2022-07-23T04:46:46;98467.31;;;24.91;43.79
21433;BME280;18592;49.708;10.900;2022-07-23T04:48:51;98471.41;;;24.94;44.12
21433;BME280;18592;49.708;10.900;2022-07-23T04:50:53;98475.09;;;24.98;44.28
21433;BME280;18592;49.708;10.900;2022-07-23T04:52:56;98479.19;;;25.00;44.27
21433;BME280;18592;49.708;10.900;2022-07-23T04:54:58;98471.28;;;25.02;44.14
21433;BME280;18592;49.708;10.900;2022-07-23T04:57:00;98474.56;;;25.04;44.15
21433;BME280;18592;49.708;10.900;2022-07-23T04:59:01;98473.03;;;25.07;44.28
21433;BME280;18592;49.708;10.900;2022-07-23T05:01:04;98474.31;;;25.09;44.49
21433;BME280;18592;49.708;10.900;2022-07-23T05:03:08;98474.41;;;25.13;44.34
21433;BME280;18592;49.708;10.900;2022-07-23T05:05:11;98474.88;;;25.15;43.93
21433;BME280;18592;49.708;10.900;2022-07-23T05:07:14;98482.22;;;25.19;43.84
21433;BME280;18592;49.708;10.900;2022-07-23T05:09:16;98486.75;;;25.24;44.16
21433;BME280;18592;49.708;10.900;2022-07-23T05:11:18;98479.66;;;25.27;43.79
21433;BME280;18592;49.708;10.900;2022-07-23T05:13:27;98488.50;;;25.29;44.29
21433;BME280;18592;49.708;10.900;2022-07-23T05:15:28;98489.91;;;25.35;44.93
21433;BME280;18592;49.708;10.900;2022-07-23T05:17:31;98491.63;;;25.39;45.10
21433;BME280;18592;49.708;10.900;2022-07-23T05:19:44;98495.34;;;25.43;45.69
21433;BME280;18592;49.708;10.900;2022-07-23T05:21:45;98507.50;;;25.47;45.56
21433;BME280;18592;49.708;10.900;2022-07-23T05:23:48;98516.41;;;25.53;46.06
21433;BME280;18592;49.708;10.900;2022-07-23T05:25:49;98516.19;;;25.58;46.17
21433;BME280;18592;49.708;10.900;2022-07-23T05:27:52;98508.38;;;25.63;46.13
21433;BME280;18592;49.708;10.900;2022-07-23T05:29:53;98510.47;;;25.66;45.67
21433;BME280;18592;49.708;10.900;2022-07-23T05:31:55;98507.91;;;25.73;46.14
21433;BME280;18592;49.708;10.900;2022-07-23T05:33:57;98510.47;;;25.78;45.80
21433;BME280;18592;49.708;10.900;2022-07-23T05:36:03;98517.91;;;25.86;46.31
21433;BME280;18592;49.708;10.900;2022-07-23T05:38:06;98517.78;;;25.95;46.18
21433;BME280;18592;49.708;10.900;2022-07-23T05:40:10;98512.75;;;26.01;46.02
21433;BME280;18592;49.708;10.900;2022-07-23T05:42:11;98510.16;;;26.08;46.10
21433;BME280;18592;49.708;10.900;2022-07-23T05:44:13;98517.63;;;26.16;45.56
21433;BME280;18592;49.708;10.900;2022-07-23T05:46:17;98505.03;;;26.22;45.39
21433;BME280;18592;49.708;10.900;2022-07-23T05:48:24;98498.47;;;26.30;45.07
21433;BME280;18592;49.708;10.900;2022-07-23T05:50:38;98501.47;;;26.37;44.97
21433;BME280;18592;49.708;10.900;2022-07-23T05:52:52;98517.72;;;26.47;45.17
21433;BME280;18592;49.708;10.900;2022-07-23T05:55:21;98524.44;;;26.58;44.94
21433;BME280;18592;49.708;10.900;2022-07-23T05:57:23;98531.06;;;26.66;44.60
21433;BME280;18592;49.708;10.900;2022-07-23T05:59:27;98532.06;;;26.73;44.45
21433;BME280;18592;49.708;10.900;2022-07-23T06:01:29;98531.81;;;26.78;44.50
21433;BME280;18592;49.708;10.900;2022-07-23T06:03:40;98536.44;;;26.86;43.86
21433;BME280;18592;49.708;10.900;2022-07-23T06:05:42;98546.56;;;26.91;44.07
21433;BME280;18592;49.708;10.900;2022-07-23T06:07:44;98552.72;;;26.96;43.82
21433;BME280;18592;49.708;10.900;2022-07-23T06:09:47;98546.03;;;27.01;43.75
21433;BME280;18592;49.708;10.900;2022-07-23T06:11:51;98547.75;;;27.05;43.83
21433;BME280;18592;49.708;10.900;2022-07-23T06:13:53;98557.06;;;27.09;43.63
21433;BME280;18592;49.708;10.900;2022-07-23T06:16:00;98565.19;;;27.15;43.50
21433;BME280;18592;49.708;10.900;2022-07-23T06:18:01;98561.66;;;27.18;43.63
21433;BME280;18592;49.708;10.900;2022-07-23T06:20:03;98560.22;;;27.24;43.30
21433;BME280;18592;49.708;10.900;2022-07-23T06:22:05;98553.66;;;27.32;43.56
21433;BME280;18592;49.708;10.900;2022-07-23T06:24:07;98558.72;;;27.42;43.63
21433;BME280;18592;49.708;10.900;2022-07-23T06:26:09;98548.59;;;27.53;43.60
21433;BME280;18592;49.708;10.900;2022-07-23T06:28:10;98552.91;;;27.66;43.44
21433;BME280;18592;49.708;10.900;2022-07-23T06:30:12;98555.25;;;27.80;43.75
21433;BME280;18592;49.708;10.900;2022-07-23T06:32:17;98554.41;;;27.95;43.72
21433;BME280;18592;49.708;10.900;2022-07-23T06:34:19;98566.78;;;28.09;43.37
21433;BME280;18592;49.708;10.900;2022-07-23T06:36:20;98557.91;;;28.23;43.49
21433;BME280;18592;49.708;10.900;2022-07-23T06:38:23;98568.59;;;28.37;43.45
21433;BME280;18592;49.708;10.900;2022-07-23T06:40:25;98565.28;;;28.50;42.85
21433;BME280;18592;49.708;10.900;2022-07-23T06:42:26;98574.41;;;28.63;43.07
21433;BME280;18592;49.708;10.900;2022-07-23T06:44:31;98577.47;;;28.77;42.98
21433;BME280;18592;49.708;10.900;2022-07-23T06:46:34;98580.94;;;28.89;42.44
21433;BME280;18592;49.708;10.900;2022-07-23T06:48:36;98569.09;;;29.00;42.46
21433;BME280;18592;49.708;10.900;2022-07-23T06:50:38;98580.53;;;29.10;42.23
21433;BME280;18592;49.708;10.900;2022-07-23T06:52:40;98585.22;;;29.22;42.45
21433;BME280;18592;49.708;10.900;2022-07-23T06:54:43;98581.41;;;29.33;42.13
21433;BME280;18592;49.708;10.900;2022-07-23T06:56:45;98593.66;;;29.44;41.93
21433;BME280;18592;49.708;10.900;2022-07-23T06:58:47;98601.81;;;29.53;42.05
21433;BME280;18592;49.708;10.900;2022-07-23T07:00:49;98613.97;;;29.61;41.76
21433;BME280;18592;49.708;10.900;2022-07-23T07:02:50;98608.50;;;29.68;41.53
21433;BME280;18592;49.708;10.900;2022-07-23T07:04:54;98606.97;;;29.74;41.30
21433;BME280;18592;49.708;10.900;2022-07-23T07:07:05;98606.69;;;29.79;41.18
21433;BME280;18592;49.708;10.900;2022-07-23T07:09:07;98606.78;;;29.82;40.96
21433;BME280;18592;49.708;10.900;2022-07-23T07:11:09;98604.81;;;29.86;41.05
21433;BME280;18592;49.708;10.900;2022-07-23T07:13:11;98618.13;;;29.89;41.02
21433;BME280;18592;49.708;10.900;2022-07-23T07:15:12;98608.13;;;29.92;40.75
21433;BME280;18592;49.708;10.900;2022-07-23T07:17:14;98618.63;;;29.95;41.01
21433;BME280;18592;49.708;10.900;2022-07-23T07:19:16;98629.06;;;29.94;40.70
21433;BME280;18592;49.708;10.900;2022-07-23T07:21:18;98621.84;;;29.97;40.73
21433;BME280;18592;49.708;10.900;2022-07-23T07:23:20;98633.91;;;29.97;40.52
21433;BME280;18592;49.708;10.900;2022-07-23T07:25:22;98637.56;;;29.98;40.54
21433;BME280;18592;49.708;10.900;2022-07-23T07:27:23;98644.75;;;29.95;40.61
21433;BME280;18592;49.708;10.900;2022-07-23T07:29:25;98640.69;;;29.93;40.50
21433;BME280;18592;49.708;10.900;2022-07-23T07:31:27;98649.88;;;29.90;40.47
21433;BME280;18592;49.708;10.900;2022-07-23T07:33:29;98654.25;;;29.87;40.32
21433;BME280;18592;49.708;10.900;2022-07-23T07:35:30;98650.53;;;29.83;40.28
21433;BME280;18592;49.708;10.900;2022-07-23T07:37:33;98654.03;;;29.77;40.35
21433;BME280;18592;49.708;10.900;2022-07-23T07:39:35;98658.78;;;29.73;40.76
21433;BME280;18592;49.708;10.900;2022-07-23T07:41:37;98667.06;;;29.66;41.07
21433;BME280;18592;49.708;10.900;2022-07-23T07:43:39;98675.38;;;29.58;41.33
21433;BME280;18592;49.708;10.900;2022-07-23T07:45:40;98678.41;;;29.50;41.31
21433;BME280;18592;49.708;10.900;2022-07-23T07:47:43;98667.78;;;29.40;41.59
21433;BME280;18592;49.708;10.900;2022-07-23T07:49:44;98670.41;;;29.29;41.81
21433;BME280;18592;49.708;10.900;2022-07-23T07:51:46;98680.69;;;29.22;41.97
21433;BME280;18592;49.708;10.900;2022-07-23T07:53:48;98678.06;;;29.13;42.35
21433;BME280;18592;49.708;10.900;2022-07-23T07:55:50;98686.34;;;29.06;42.36
21433;BME280;18592;49.708;10.900;2022-07-23T07:57:52;98679.34;;;28.97;42.46
21433;BME280;18592;49.708;10.900;2022-07-23T07:59:53;98681.97;;;28.89;42.39
21433;BME280;18592;49.708;10.900;2022-07-23T08:01:57;98678.22;;;28.82;42.57
21433;BME280;18592;49.708;10.900;2022-07-23T08:03:59;98673.66;;;28.74;43.03
21433;BME280;18592;49.708;10.900;2022-07-23T08:06:01;98676.28;;;28.67;42.83
21433;BME280;18592;49.708;10.900;2022-07-23T08:08:03;98688.53;;;28.59;43.12
21433;BME280;18592;49.708;10.900;2022-07-23T08:10:06;98690.41;;;28.55;43.11
21433;BME280;18592;49.708;10.900;2022-07-23T08:12:08;98688.28;;;28.48;43.40
21433;BME280;18592;49.708;10.900;2022-07-23T08:14:10;98682.94;;;28.43;43.47
21433;BME280;18592;49.708;10.900;2022-07-23T08:16:12;98690.81;;;28.38;43.54
21433;BME280;18592;49.708;10.900;2022-07-23T08:18:14;98698.69;;;28.32;44.05
21433;BME280;18592;49.708;10.900;2022-07-23T08:20:17;98695.34;;;28.26;43.97
21433;BME280;18592;49.708;10.900;2022-07-23T08:22:19;98693.66;;;28.22;43.71
21433;BME280;18592;49.708;10.900;2022-07-23T08:24:21;98685.13;;;28.18;44.13
21433;BME280;18592;49.708;10.900;2022-07-23T08:26:23;98671.41;;;28.13;44.04
21433;BME280;18592;49.708;10.900;2022-07-23T08:28:25;98682.53;;;28.10;44.16
21433;BME280;18592;49.708;10.900;2022-07-23T08:30:28;98681.56;;;28.02;44.20
21433;BME280;18592;49.708;10.900;2022-07-23T08:32:30;98679.44;;;27.99;44.33
21433;BME280;18592;49.708;10.900;2022-07-23T08:34:45;98679.34;;;27.96;44.30
21433;BME280;18592;49.708;10.900;2022-07-23T08:36:47;98680.88;;;27.93;44.62
21433;BME280;18592;49.708;10.900;2022-07-23T08:38:51;98679.28;;;27.92;44.30
21433;BME280;18592;49.708;10.900;2022-07-23T08:40:55;98685.59;;;27.89;45.03
21433;BME280;18592;49.708;10.900;2022-07-23T08:42:59;98684.78;;;27.89;45.11
21433;BME280;18592;49.708;10.900;2022-07-23T08:45:08;98679.53;;;27.87;45.35
21433;BME280;18592;49.708;10.900;2022-07-23T08:47:11;98686.31;;;27.86;45.36
21433;BME280;18592;49.708;10.900;2022-07-23T08:49:13;98693.56;;;27.87;45.43
21433;BME280;18592;49.708;10.900;2022-07-23T08:51:18;98699.59;;;27.89;45.58
21433;BME280;18592;49.708;10.900;2022-07-23T08:53:21;98706.47;;;27.92;45.91
21433;BME280;18592;49.708;10.900;2022-07-23T08:55:23;98716.97;;;27.95;46.29
21433;BME280;18592;49.708;10.900;2022-07-23T08:57:25;98712.25;;;27.99;46.08
21433;BME280;18592;49.708;10.900;2022-07-23T08:59:28;98704.81;;;28.03;46.18
21433;BME280;18592;49.708;10.900;2022-07-23T09:01:30;98720.97;;;28.09;46.61
21433;BME280;18592;49.708;10.900;2022-07-23T09:03:34;98722.34;;;28.15;46.80
21433;BME280;18592;49.708;10.900;2022-07-23T09:05:36;98721.31;;;28.23;46.74
21433;BME280;18592;49.708;10.900;2022-07-23T09:08:05;98705.94;;;28.33;47.21
21433;BME280;18592;49.708;10.900;2022-07-23T09:10:09;98707.81;;;28.45;46.61
21433;BME280;18592;49.708;10.900;2022-07-23T09:12:11;98725.72;;;28.56;46.61
21433;BME280;18592;49.708;10.900;2022-07-23T09:14:13;98723.97;;;28.67;46.71
21433;BME280;18592;49.708;10.900;2022-07-23T09:18:36;98727.66;;;29.06;47.17
21433;BME280;18592;49.708;10.900;2022-07-23T09:20:41;98726.50;;;29.26;46.37
21433;BME280;18592;49.708;10.900;2022-07-23T09:22:47;98725.31;;;29.46;46.27
21433;BME280;18592;49.708;10.900;2022-07-23T09:27:09;98739.53;;;29.76;45.42
21433;BME280;18592;49.708;10.900;2022-07-23T09:29:22;98738.94;;;29.86;45.30
21433;BME280;18592;49.708;10.900;2022-07-23T09:31:25;98743.16;;;29.95;44.74
21433;BME280;18592;49.708;10.900;2022-07-23T09:33:27;98734.84;;;30.02;44.75
21433;BME280;18592;49.708;10.900;2022-07-23T09:35:51;98741.44;;;30.13;44.90
21433;BME280;18592;49.708;10.900;2022-07-23T09:38:02;98734.44;;;30.27;45.14
21433;BME280;18592;49.708;10.900;2022-07-23T09:40:09;98733.88;;;30.40;44.80
21433;BME280;18592;49.708;10.900;2022-07-23T09:42:19;98739.31;;;30.52;44.42
21433;BME280;18592;49.708;10.900;2022-07-23T09:44:22;98731.44;;;30.65;44.12
21433;BME280;18592;49.708;10.900;2022-07-23T09:46:29;98733.22;;;30.76;43.85
21433;BME280;18592;49.708;10.900;2022-07-23T09:48:30;98733.78;;;30.86;43.45
21433;BME280;18592;49.708;10.900;2022-07-23T09:50:34;98735.13;;;30.95;43.11
21433;BME280;18592;49.708;10.900;2022-07-23T09:52:42;98736.44;;;31.01;43.19
21433;BME280;18592;49.708;10.900;2022-07-23T09:54:44;98736.91;;;31.07;43.20
21433;BME280;18592;49.708;10.900;2022-07-23T09:56:47;98737.75;;;31.11;42.77
21433;BME280;18592;49.708;10.900;2022-07-23T09:58:50;98728.97;;;31.16;42.40
21433;BME280;18592;49.708;10.900;2022-07-23T10:00:53;98733.88;;;31.22;42.83
21433;BME280;18592;49.708;10.900;2022-07-23T10:02:57;98731.53;;;31.28;42.48
21433;BME280;18592;49.708;10.900;2022-07-23T10:05:02;98744.53;;;31.36;42.46
21433;BME280;18592;49.708;10.900;2022-07-23T10:07:25;98744.59;;;31.43;41.82
21433;BME280;18592;49.708;10.900;2022-07-23T10:09:48;98738.25;;;31.46;42.16
21433;BME280;18592;49.708;10.900;2022-07-23T10:12:15;98737.91;;;31.51;41.55
21433;BME280;18592;49.708;10.900;2022-07-23T10:14:28;98739.53;;;31.56;41.26
21433;BME280;18592;49.708;10.900;2022-07-23T10:16:37;98734.34;;;31.58;41.39
21433;BME280;18592;49.708;10.900;2022-07-23T10:18:40;98740.78;;;31.58;41.03
21433;BME280;18592;49.708;10.900;2022-07-23T10:20:47;98733.97;;;31.59;40.76
21433;BME280;18592;49.708;10.900;2022-07-23T10:23:21;98741.66;;;31.62;40.85
21433;BME280;18592;49.708;10.900;2022-07-23T10:25:32;98737.31;;;31.72;40.87
21433;BME280;18592;49.708;10.900;2022-07-23T10:28:06;98732.97;;;31.81;40.96
21433;BME280;18592;49.708;10.900;2022-07-23T10:30:26;98735.50;;;31.93;40.25
21433;BME280;18592;49.708;10.900;2022-07-23T10:35:03;98735.25;;;32.06;40.09
21433;BME280;18592;49.708;10.900;2022-07-23T10:37:23;98739.75;;;32.10;39.83
21433;BME280;18592;49.708;10.900;2022-07-23T10:39:33;98723.69;;;32.18;40.14
21433;BME280;18592;49.708;10.900;2022-07-23T10:41:37;98718.91;;;32.25;39.89
21433;BME280;18592;49.708;10.900;2022-07-23T10:43:40;98716.56;;;32.31;39.91
21433;BME280;18592;49.708;10.900;2022-07-23T10:45:41;98711.38;;;32.40;39.99
21433;BME280;18592;49.708;10.900;2022-07-23T10:47:43;98696.97;;;32.52;40.12
21433;BME280;18592;49.708;10.900;2022-07-23T10:49:48;98709.16;;;32.67;40.19
21433;BME280;18592;49.708;10.900;2022-07-23T10:52:19;98698.34;;;32.79;39.89
21433;BME280;18592;49.708;10.900;2022-07-23T10:54:22;98697.22;;;32.91;39.61
21433;BME280;18592;49.708;10.900;2022-07-23T10:59:03;98702.94;;;33.05;39.03
21433;BME280;18592;49.708;10.900;2022-07-23T11:01:35;98704.94;;;33.04;39.18